Weather reports worldwide

Advertisment
Leuchtturm Alte Weser, Germany (10124): temperature & dewpoint: 10.12.2019 14:00:00 - 16.12.2019 14:00:00 (CET)Leuchtturm Alte Weser, Germany (10124): wind speed & gusts: 10.12.2019 14:00:00 - 16.12.2019 14:00:00 (CET)Leuchtturm Alte Weser, Germany (10124): wind direction: 10.12.2019 14:00:00 - 16.12.2019 14:00:00 (CET)Leuchtturm Alte Weser, Germany (10124): reduced air pressure: 10.12.2019 14:00:00 - 16.12.2019 14:00:00 (CET)Leuchtturm Alte Weser, Germany (10124): sunshine duration: 10.12.2019 14:00:00 - 16.12.2019 14:00:00 (CET)
Date & Time tt [°C] td [°C] ff [km/h] ff [kn] fx [km/h] fx [kn] dd ppp [hPa] sd [min]
16.12.2019 14:00:00 - - - - - - - - -
16.12.2019 13:00:00 7,1 5,7 36 19 - - SSW 1003,3 6
16.12.2019 12:00:00 6,5 5,0 32 18 - - SSW 1003,8 6
16.12.2019 11:00:00 6,0 4,5 40 21 47 25 S 1003,9 0
16.12.2019 10:00:00 5,9 4,1 40 21 - - S 1003,6 6
16.12.2019 09:00:00 5,5 3,5 40 21 47 25 S 1003,1 0
16.12.2019 08:00:00 5,3 3,3 36 19 47 25 S 1002,9 0
16.12.2019 07:00:00 5,6 3,2 40 21 - - S 1002,9 0
16.12.2019 06:00:00 5,6 3,0 43 23 50 27 S 1003,2 0
16.12.2019 05:00:00 5,7 3,0 43 23 50 27 S 1003,4 0
16.12.2019 04:00:00 5,5 3,1 40 21 - - S 1003,5 0
16.12.2019 03:00:00 5,7 3,4 40 21 50 27 SSW 1003,7 0
16.12.2019 02:00:00 5,8 3,7 43 23 58 31 SSW 1003,4 0
16.12.2019 01:00:00 6,0 4,0 47 25 - - SW 1003,1 0
16.12.2019 00:00:00 6,1 4,2 50 27 58 31 SW 1002,6 0
15.12.2019 23:00:00 6,3 4,4 47 25 54 29 SW 1001,9 0
15.12.2019 22:00:00 6,5 4,5 47 25 - - SW 1001,3 0
15.12.2019 21:00:00 6,6 5,2 50 27 61 33 SW 1000,2 0
15.12.2019 20:00:00 6,2 4,2 50 27 68 37 SW 999,4 0
15.12.2019 19:00:00 6,6 5,1 47 25 - - SW 998,5 0
15.12.2019 18:00:00 6,6 4,7 50 27 58 31 SW 997,5 0
15.12.2019 17:00:00 7,2 3,6 50 27 68 37 SW 996,5 0
15.12.2019 16:00:00 7,3 3,3 61 33 - - WSW 995,2 18
15.12.2019 15:00:00 7,8 2,5 79 43 104 56 WSW 993,5 54
15.12.2019 14:00:00 7,9 2,0 86 47 104 56 WSW 991,8 42
15.12.2019 13:00:00 7,7 1,7 83 45 - - WSW 990,3 60
15.12.2019 12:00:00 7,4 1,8 86 47 108 58 SW 989,4 60
15.12.2019 11:00:00 7,3 2,0 83 45 104 56 SW 988,2 48
15.12.2019 10:00:00 7,6 3,8 72 39 - - SW 987,3 6
15.12.2019 09:00:00 7,9 5,4 68 37 83 45 SW 985,9 0
15.12.2019 08:00:00 6,0 4,8 50 27 72 39 S 985,2 0
15.12.2019 07:00:00 4,6 3,5 58 31 - - S 985,9 0
15.12.2019 06:00:00 4,9 2,7 58 31 65 35 SSE 987,0 0
15.12.2019 05:00:00 4,7 2,7 50 27 58 31 S 989,3 0
15.12.2019 04:00:00 4,8 2,0 43 23 - - S 991,1 0
15.12.2019 03:00:00 4,9 1,8 47 25 54 29 SSW 992,2 0
15.12.2019 02:00:00 4,6 1,6 47 25 61 33 SW 992,7 0
15.12.2019 01:00:00 4,9 1,8 47 25 - - SW 992,9 0
15.12.2019 00:00:00 5,3 2,3 50 27 68 37 SW 992,5 0
14.12.2019 23:00:00 5,3 2,9 54 29 68 37 SW 991,7 0
14.12.2019 22:00:00 5,3 3,1 58 31 - - SW 990,3 0
14.12.2019 21:00:00 4,7 4,1 54 29 90 49 WSW 989,8 0
14.12.2019 20:00:00 4,3 3,0 76 41 94 51 WSW 988,0 0
14.12.2019 19:00:00 6,6 2,6 54 29 - - SW 986,9 0
14.12.2019 18:00:00 6,0 2,6 47 25 65 35 SW 986,2 0
14.12.2019 17:00:00 6,1 2,9 50 27 86 47 SW 985,7 0
14.12.2019 16:00:00 6,2 3,3 76 41 - - WSW 984,1 12
14.12.2019 15:00:00 6,4 2,9 68 37 86 47 WSW 983,6 48
14.12.2019 14:00:00 6,0 3,2 72 39 83 45 WSW 982,3 24
14.12.2019 13:00:00 6,6 3,6 61 33 - - WSW 981,8 0
14.12.2019 12:00:00 5,3 4,2 61 33 76 41 SW 981,6 18
14.12.2019 11:00:00 5,2 4,4 47 25 65 35 SW 980,9 0
14.12.2019 10:00:00 4,5 3,6 50 27 - - SW 980,0 0
14.12.2019 09:00:00 4,9 4,0 47 25 58 31 SW 979,4 0
14.12.2019 08:00:00 5,0 4,1 47 25 61 33 SW 978,6 0
14.12.2019 07:00:00 5,0 4,0 47 25 - - SSW 978,3 0
14.12.2019 06:00:00 5,4 3,8 40 21 50 27 SSW 978,1 0
14.12.2019 05:00:00 5,5 4,0 43 23 50 27 SSW 978,4 0
14.12.2019 04:00:00 5,4 4,7 40 21 - - SSW 978,9 0
14.12.2019 03:00:00 5,3 4,5 40 21 - - SSW 979,3 0
14.12.2019 02:00:00 4,5 4,5 36 19 - - SSW 979,5 0
14.12.2019 01:00:00 3,8 3,8 32 18 - - S 980,0 0
14.12.2019 00:00:00 2,9 2,5 29 16 - - S 980,5 0
13.12.2019 23:00:00 2,6 2,5 29 16 - - S 980,8 0
13.12.2019 22:00:00 2,3 1,9 25 14 - - S 981,2 0
13.12.2019 21:00:00 2,0 1,7 29 16 - - S 981,1 0
13.12.2019 20:00:00 2,4 1,9 25 14 - - S 981,2 0
13.12.2019 19:00:00 2,6 1,3 29 16 - - SSE 980,6 0
13.12.2019 18:00:00 2,7 1,4 22 12 - - SE 980,5 0
13.12.2019 17:00:00 2,8 0,9 25 14 - - SE 980,0 0
13.12.2019 16:00:00 2,6 0,6 25 14 - - SE 979,3 0
13.12.2019 15:00:00 2,6 0,2 29 16 - - ESE 978,8 0
13.12.2019 14:00:00 2,6 0,1 32 18 - - ESE 978,5 0
13.12.2019 13:00:00 2,5 -0,1 32 18 - - ESE 978,1 0
13.12.2019 12:00:00 2,7 -0,2 36 19 47 25 SE 978,1 0
13.12.2019 11:00:00 2,4 -0,6 36 19 54 29 SE 978,1 0
13.12.2019 10:00:00 2,4 -0,4 40 21 - - SE 978,1 0
13.12.2019 09:00:00 2,1 -0,7 43 23 54 29 SE 977,9 0
13.12.2019 08:00:00 2,4 -0,3 43 23 65 35 SW 978,2 0
13.12.2019 07:00:00 2,8 -0,3 54 29 - - SW 978,5 0
13.12.2019 06:00:00 3,0 -0,2 50 27 65 35 SW 979,3 0
13.12.2019 05:00:00 3,1 0,1 50 27 68 37 SE 979,8 0
13.12.2019 04:00:00 3,4 0,3 58 31 - - SE 980,8 0
13.12.2019 03:00:00 3,2 0,5 58 31 76 41 SSE 982,1 0
13.12.2019 02:00:00 3,4 0,5 58 31 76 41 SSE 983,5 0
13.12.2019 01:00:00 3,4 0,7 50 27 - - SSE 985,3 0
13.12.2019 00:00:00 3,5 0,5 50 27 61 33 SSE 987,0 0
12.12.2019 23:00:00 3,8 0,9 50 27 61 33 SSE 988,6 0
12.12.2019 22:00:00 3,9 0,7 50 27 - - SSE 989,8 0
12.12.2019 21:00:00 4,1 1,5 47 25 54 29 SSE 991,1 0
12.12.2019 20:00:00 4,3 1,8 43 23 50 27 SSE 992,3 0
12.12.2019 19:00:00 4,4 1,8 40 21 - - S 993,4 0
12.12.2019 18:00:00 4,6 1,9 32 18 - - S 994,6 0
12.12.2019 17:00:00 4,7 1,8 36 19 - - SSW 995,2 0
12.12.2019 16:00:00 5,3 2,1 36 19 - - SSW 995,8 30
12.12.2019 15:00:00 5,7 2,7 36 19 - - SSW 996,2 48
12.12.2019 14:00:00 5,6 2,9 36 19 - - SSW 996,8 60
12.12.2019 13:00:00 5,5 3,6 36 19 - - SW 997,3 54
12.12.2019 12:00:00 5,5 4,0 40 21 47 25 SW 997,7 12
12.12.2019 11:00:00 5,4 4,2 40 21 47 25 SSW 998,2 0
12.12.2019 10:00:00 5,4 4,0 36 19 - - SSW 998,4 0
12.12.2019 09:00:00 5,4 4,2 36 19 - - SSW 998,5 0
12.12.2019 08:00:00 5,5 4,3 36 19 - - SSW 998,5 0
12.12.2019 07:00:00 5,5 4,5 36 19 - - SSW 998,7 0
12.12.2019 06:00:00 5,2 4,4 29 16 - - S 998,9 0
12.12.2019 05:00:00 5,2 4,0 25 14 - - S 999,5 0
12.12.2019 04:00:00 4,8 3,2 29 16 - - SSW 1000,1 0
12.12.2019 03:00:00 4,8 3,9 29 16 - - SW 1000,7 0
12.12.2019 02:00:00 4,6 4,2 29 16 - - SW 1000,9 0
12.12.2019 01:00:00 5,0 4,4 32 18 - - SW 1001,3 0
12.12.2019 00:00:00 5,5 4,9 25 14 - - SSW 1001,8 0
11.12.2019 23:00:00 5,6 5,1 29 16 - - SW 1002,1 0
11.12.2019 22:00:00 5,7 4,9 25 14 - - SW 1002,6 0
11.12.2019 21:00:00 5,7 5,1 25 14 - - SW 1002,7 0
11.12.2019 20:00:00 5,8 5,5 22 12 - - SW 1003,0 0
11.12.2019 19:00:00 6,0 5,7 22 12 - - SSW 1003,3 0
11.12.2019 18:00:00 6,2 5,8 22 12 - - S 1003,5 0
11.12.2019 17:00:00 6,5 5,4 18 10 - - S 1003,8 0
11.12.2019 16:00:00 6,4 5,0 22 12 - - SSW 1003,9 0
11.12.2019 15:00:00 6,2 5,1 29 16 - - SW 1004,2 0
11.12.2019 14:00:00 6,2 5,4 29 16 - - SSW 1004,6 0
11.12.2019 13:00:00 6,2 5,2 29 16 - - SSW 1005,2 0
11.12.2019 12:00:00 6,2 5,5 29 16 - - SW 1005,8 0
11.12.2019 11:00:00 6,2 5,7 32 18 - - SSW 1006,5 0
11.12.2019 10:00:00 6,2 5,7 36 19 - - SSW 1006,4 0
11.12.2019 09:00:00 6,0 5,6 36 19 50 27 SSW 1006,3 0
11.12.2019 08:00:00 5,9 5,4 43 23 54 29 SSW 1005,9 0
11.12.2019 07:00:00 5,9 5,2 47 25 - - SSW 1005,7 0
11.12.2019 06:00:00 5,3 4,6 50 27 65 35 SSW 1005,6 0
11.12.2019 05:00:00 6,0 4,5 58 31 76 41 SW 1005,8 0
11.12.2019 04:00:00 6,9 3,1 58 31 - - SSW 1005,3 0
11.12.2019 03:00:00 6,6 3,0 65 35 76 41 SSW 1005,2 0
11.12.2019 02:00:00 6,4 1,6 61 33 76 41 SSW 1005,7 0
11.12.2019 01:00:00 6,1 1,3 61 33 - - S 1006,5 0
11.12.2019 00:00:00 6,2 0,6 65 35 79 43 SSW 1007,5 0
10.12.2019 23:00:00 6,2 0,8 65 35 76 41 S 1008,3 0
10.12.2019 22:00:00 5,8 1,3 58 31 - - S 1008,8 0
10.12.2019 21:00:00 5,2 2,1 58 31 72 39 S 1010,3 0
10.12.2019 20:00:00 5,1 1,6 61 33 72 39 S 1011,4 0
10.12.2019 19:00:00 4,7 2,1 58 31 - - S 1012,8 0
10.12.2019 18:00:00 4,8 2,0 54 29 65 35 S 1014,1 0
10.12.2019 17:00:00 5,2 1,9 43 23 61 33 S 1015,6 0
10.12.2019 16:00:00 5,6 1,6 54 29 - - S 1016,7 24
10.12.2019 15:00:00 5,8 2,1 40 21 47 25 S 1018,1 48
10.12.2019 14:00:00 6,0 2,1 32 18 - - SSW 1019,4 60

tt = temperature
td = dewpoint
ff = wind speed
fx = gusts
dd = wind direction
ppp = reduced air pressure
sd = sunshine duration

Next stations